createdAt,value
2023-04-18T00:03:16.652Z,22.27
2023-04-18T00:05:48.049Z,24.17
2023-04-18T00:08:18.649Z,25.30
2023-04-18T00:10:47.688Z,27.25
2023-04-18T00:13:18.510Z,27.48
2023-04-18T00:15:47.682Z,24.90
2023-04-18T00:18:22.576Z,25.52
2023-04-18T00:20:51.611Z,28.73
2023-04-18T00:23:22.410Z,27.52
2023-04-18T00:25:51.094Z,34.50
2023-04-18T00:28:19.474Z,28.27
2023-04-18T00:30:49.081Z,23.42
2023-04-18T00:33:17.765Z,25.90
2023-04-18T00:35:46.859Z,31.23
2023-04-18T00:40:46.923Z,22.35
2023-04-18T00:43:15.575Z,25.05
2023-04-18T00:45:44.765Z,24.67
2023-04-18T00:48:16.148Z,27.90
2023-04-18T00:50:45.239Z,25.35
2023-04-18T00:53:15.609Z,26.60
2023-04-18T00:55:44.626Z,26.08
2023-04-18T00:58:15.498Z,24.10
2023-04-18T01:00:44.684Z,28.75
2023-04-18T01:03:14.828Z,28.38
2023-04-18T01:05:43.970Z,29.25
2023-04-18T01:08:13.221Z,25.33
2023-04-18T01:10:42.293Z,30.60
2023-04-18T01:13:20.730Z,25.48
2023-04-18T01:15:51.237Z,25.80
2023-04-18T01:18:20.971Z,27.60
2023-04-18T01:22:02.688Z,28.10
2023-04-18T01:24:39.488Z,28.83
2023-04-18T01:27:08.469Z,27.98
2023-04-18T01:29:38.929Z,25.15
2023-04-18T01:32:08.035Z,26.67
2023-04-18T01:34:36.789Z,28.35
2023-04-18T01:37:07.887Z,26.33
2023-04-18T01:39:39.207Z,27.35
2023-04-18T01:42:07.633Z,35.40
2023-04-18T01:44:36.286Z,27.80
2023-04-18T01:47:04.922Z,26.33
2023-04-18T01:49:35.065Z,24.45
2023-04-18T01:52:03.908Z,26.65
2023-04-18T01:54:32.945Z,26.58
2023-04-18T01:57:03.508Z,24.85
2023-04-18T01:59:32.509Z,30.15
2023-04-18T02:02:04.148Z,28.65
2023-04-18T02:04:33.215Z,25.85
2023-04-18T02:07:01.653Z,34.38
2023-04-18T02:09:31.026Z,27.80
2023-04-18T02:12:01.809Z,28.15
2023-04-18T02:14:33.590Z,32.13
2023-04-18T02:17:03.298Z,31.77
2023-04-18T02:19:32.027Z,32.85
2023-04-18T02:22:00.374Z,31.77
2023-04-18T02:24:29.169Z,29.67
2023-04-18T02:26:57.515Z,26.52
2023-04-18T02:29:30.684Z,31.27
2023-04-18T02:32:00.558Z,28.77
2023-04-18T02:34:29.617Z,29.35
2023-04-18T02:36:58.072Z,26.42
2023-04-18T02:39:27.107Z,28.50
2023-04-18T02:41:56.093Z,26.55
2023-04-18T02:44:26.892Z,29.55
2023-04-18T02:46:56.491Z,27.90
2023-04-18T02:49:27.281Z,25.95
2023-04-18T02:51:56.252Z,28.30
2023-04-18T02:54:25.180Z,29.85
2023-04-18T02:57:07.722Z,28.75
2023-04-18T02:59:42.226Z,27.65
2023-04-18T03:02:33.932Z,25.40
2023-04-18T03:05:13.720Z,24.90
2023-04-18T03:10:11.622Z,27.13
2023-04-18T03:12:41.180Z,23.05
2023-04-18T03:15:11.968Z,25.05
2023-04-18T03:17:41.124Z,25.45
2023-04-18T03:20:12.329Z,26.65
2023-04-18T03:22:42.651Z,27.27
2023-04-18T03:25:12.424Z,25.75
2023-04-18T03:27:52.576Z,28.30
2023-04-18T03:30:24.542Z,25.00
2023-04-18T03:32:56.327Z,24.33
2023-04-18T03:35:25.209Z,25.95
2023-04-18T03:37:54.908Z,27.50
2023-04-18T03:40:30.535Z,28.25
2023-04-18T03:43:04.726Z,27.27
2023-04-18T03:45:34.230Z,30.70
2023-04-18T03:48:02.755Z,28.17
2023-04-18T03:50:35.884Z,34.92
2023-04-18T03:53:08.306Z,29.50
2023-04-18T03:55:39.170Z,29.70
2023-04-18T04:00:37.537Z,28.20
2023-04-18T04:03:10.166Z,30.13
2023-04-18T04:05:39.608Z,28.58
2023-04-18T04:08:09.708Z,27.83
2023-04-18T04:10:38.785Z,27.98
2023-04-18T04:13:07.860Z,30.55
2023-04-18T04:15:40.224Z,31.40
2023-04-18T04:18:11.693Z,28.02
2023-04-18T04:20:45.142Z,26.00
2023-04-18T04:23:34.394Z,28.80
2023-04-18T04:26:04.719Z,28.27
2023-04-18T04:28:47.548Z,33.03
2023-04-18T04:31:22.390Z,29.98
2023-04-18T04:33:51.982Z,30.58
2023-04-18T04:36:24.930Z,27.15
2023-04-18T04:38:55.912Z,26.90
2023-04-18T04:41:33.680Z,26.90
2023-04-18T04:44:02.575Z,31.17
2023-04-18T04:46:34.569Z,27.58
2023-04-18T04:49:08.150Z,32.65
2023-04-18T04:51:37.057Z,30.15
2023-04-18T04:54:07.246Z,27.38
2023-04-18T04:56:36.951Z,28.20
2023-04-18T05:01:42.058Z,27.92
2023-04-18T05:04:12.999Z,25.50
2023-04-18T05:06:42.150Z,31.95
2023-04-18T05:09:11.948Z,32.65
2023-04-18T05:11:40.691Z,29.52
2023-04-18T05:14:09.313Z,26.67
2023-04-18T05:16:38.433Z,27.20
2023-04-18T05:19:06.896Z,29.30
2023-04-18T05:21:35.979Z,26.83
2023-04-18T05:24:04.465Z,28.45
2023-04-18T05:26:35.143Z,28.45
2023-04-18T05:29:03.529Z,27.27
2023-04-18T05:31:32.818Z,28.77
2023-04-18T05:34:01.491Z,29.00
2023-04-18T05:36:30.558Z,27.33
2023-04-18T05:38:59.235Z,26.27
2023-04-18T05:41:28.458Z,29.58
2023-04-18T05:44:05.347Z,25.88
2023-04-18T05:46:35.529Z,22.02
2023-04-18T05:49:04.178Z,27.13
2023-04-18T05:51:33.010Z,26.30
2023-04-18T05:54:01.591Z,23.70
2023-04-18T05:56:30.957Z,25.40
2023-04-18T05:59:01.055Z,27.17
2023-04-18T06:01:29.904Z,27.67
2023-04-18T06:03:58.812Z,25.35
2023-04-18T06:06:27.885Z,21.48
2023-04-18T06:08:56.354Z,26.38
2023-04-18T06:11:25.172Z,25.57
2023-04-18T06:13:55.946Z,23.25
2023-04-18T06:16:26.571Z,25.38
2023-04-18T06:18:55.924Z,22.83
2023-04-18T06:21:25.968Z,25.10
2023-04-18T06:23:54.662Z,26.67
2023-04-18T06:26:23.485Z,22.08
2023-04-18T06:28:51.764Z,23.00
2023-04-18T06:31:20.872Z,20.45
2023-04-18T06:33:52.539Z,19.85
2023-04-18T06:36:21.664Z,19.73
2023-04-18T06:38:50.251Z,20.00
2023-04-18T06:41:18.918Z,20.83
2023-04-18T06:44:02.081Z,18.15
2023-04-18T06:46:32.332Z,17.50
2023-04-18T06:49:02.715Z,19.90
2023-04-18T06:51:31.811Z,16.25
2023-04-18T06:54:00.452Z,19.70
2023-04-18T06:56:29.832Z,18.33
2023-04-18T06:58:58.375Z,18.10
2023-04-18T07:01:27.411Z,18.67
2023-04-18T07:03:56.255Z,20.55
2023-04-18T07:06:26.920Z,17.02
2023-04-18T07:09:00.292Z,19.73
2023-04-18T07:11:29.708Z,17.80
2023-04-18T07:13:58.042Z,17.95
2023-04-18T07:16:27.055Z,19.92
2023-04-18T07:18:55.434Z,19.88
2023-04-18T07:21:27.564Z,18.15
2023-04-18T07:23:56.150Z,18.55
2023-04-18T07:26:26.848Z,17.30
2023-04-18T07:28:55.550Z,17.05
2023-04-18T07:31:25.969Z,16.77
2023-04-18T07:33:54.829Z,18.35
2023-04-18T07:36:23.515Z,19.08
2023-04-18T07:38:53.481Z,15.25
2023-04-18T07:41:22.426Z,16.42
2023-04-18T07:43:50.992Z,17.80
2023-04-18T07:46:20.026Z,17.48
2023-04-18T07:48:48.688Z,16.05
2023-04-18T07:51:17.820Z,19.90
2023-04-18T07:53:46.643Z,19.17
2023-04-18T07:56:16.818Z,17.15
2023-04-18T08:01:15.404Z,16.73
2023-04-18T08:03:43.831Z,19.80
2023-04-18T08:06:13.060Z,18.83
2023-04-18T08:08:41.574Z,17.58
2023-04-18T08:11:10.234Z,18.60
2023-04-18T08:13:40.465Z,16.98
2023-04-18T08:16:09.740Z,18.13
2023-04-18T08:18:38.228Z,15.38
2023-04-18T08:21:07.270Z,17.53
2023-04-18T08:23:35.578Z,16.00
2023-04-18T08:26:04.907Z,16.20
2023-04-18T08:28:33.513Z,14.47
2023-04-18T08:31:04.182Z,15.37
2023-04-18T08:33:32.828Z,16.15
2023-04-18T08:36:01.739Z,15.68
2023-04-18T08:38:30.793Z,15.00
2023-04-18T08:40:59.485Z,15.60
2023-04-18T08:43:30.308Z,14.95
2023-04-18T08:46:00.925Z,16.10
2023-04-18T08:48:30.785Z,17.08
2023-04-18T08:51:02.419Z,14.75
2023-04-18T08:53:32.643Z,15.75
2023-04-18T08:56:03.848Z,15.00
2023-04-18T08:58:33.962Z,16.10
2023-04-18T09:01:03.342Z,17.83
2023-04-18T09:03:41.197Z,15.20
2023-04-18T09:06:13.960Z,15.68
2023-04-18T09:08:45.195Z,14.43
2023-04-18T09:11:26.118Z,13.98
2023-04-18T09:13:56.525Z,14.82
2023-04-18T09:16:27.690Z,14.95
2023-04-18T09:19:18.737Z,14.25
2023-04-18T09:21:48.986Z,16.52
2023-04-18T09:24:24.391Z,14.75
2023-04-18T09:26:55.934Z,16.15
2023-04-18T09:29:43.521Z,16.98
2023-04-18T09:32:13.102Z,15.25
2023-04-18T09:34:44.449Z,17.08
2023-04-18T09:37:15.176Z,14.95
2023-04-18T09:39:45.596Z,15.00
2023-04-18T09:42:15.407Z,14.15
2023-04-18T09:45:03.852Z,14.50
2023-04-18T09:47:35.137Z,14.38
2023-04-18T09:50:06.995Z,15.55
2023-04-18T09:52:36.990Z,15.52
2023-04-18T09:55:07.108Z,14.63
2023-04-18T09:57:40.687Z,16.52
2023-04-18T10:00:14.186Z,17.10
2023-04-18T10:02:50.514Z,15.77
2023-04-18T10:05:22.690Z,15.85
2023-04-18T10:07:52.293Z,17.40
2023-04-18T10:10:21.741Z,19.45
2023-04-18T10:15:22.425Z,18.50
2023-04-18T10:18:04.593Z,18.65
2023-04-18T10:20:36.300Z,19.60
2023-04-18T10:23:38.977Z,21.08
2023-04-18T10:26:09.259Z,19.55
2023-04-18T10:28:58.022Z,21.65
2023-04-18T10:31:27.534Z,21.30
2023-04-18T10:36:32.562Z,21.50
2023-04-18T10:39:03.637Z,20.98
2023-04-18T10:41:32.947Z,21.52
2023-04-18T10:44:23.725Z,22.77
2023-04-18T10:47:32.524Z,24.23
2023-04-18T10:50:06.789Z,23.00
2023-04-18T10:52:37.238Z,23.42
2023-04-18T10:55:17.323Z,24.50
2023-04-18T11:05:24.415Z,21.40
2023-04-18T11:07:54.401Z,22.00
2023-04-18T11:10:25.689Z,23.45
2023-04-18T11:12:59.386Z,22.90
2023-04-18T11:15:30.401Z,23.38
2023-04-18T11:18:01.801Z,23.75
2023-04-18T11:20:38.383Z,22.20
2023-04-18T11:23:17.831Z,23.65
2023-04-18T11:28:21.327Z,24.05
2023-04-18T11:30:50.663Z,23.85
2023-04-18T11:33:19.183Z,25.92
2023-04-18T11:35:48.538Z,24.37
2023-04-18T11:38:18.688Z,23.70
2023-04-18T11:40:51.389Z,24.75
2023-04-18T11:43:22.142Z,22.85
2023-04-18T11:45:53.700Z,22.40
2023-04-18T11:48:22.662Z,21.27
2023-04-18T11:50:52.571Z,22.52
2023-04-18T11:53:35.654Z,22.07
2023-04-18T11:56:04.740Z,23.48
2023-04-18T11:58:34.002Z,19.98
2023-04-18T12:03:45.938Z,22.33
2023-04-18T12:06:14.866Z,21.13
2023-04-18T12:08:46.075Z,19.33
2023-04-18T12:11:21.894Z,19.55
2023-04-18T12:13:50.367Z,19.40
2023-04-18T12:16:19.310Z,20.03
2023-04-18T12:18:47.963Z,20.88
2023-04-18T12:21:17.240Z,20.70
2023-04-18T12:23:48.296Z,23.10
2023-04-18T12:26:20.099Z,22.38
2023-04-18T12:28:53.870Z,22.42
2023-04-18T12:31:22.862Z,20.58
2023-04-18T12:33:51.809Z,21.77
2023-04-18T12:36:23.215Z,20.70
2023-04-18T12:38:53.334Z,21.35
2023-04-18T12:41:21.965Z,20.13
2023-04-18T12:43:50.751Z,19.95
2023-04-18T12:46:19.942Z,20.33
2023-04-18T12:48:48.647Z,19.38
2023-04-18T12:51:17.758Z,20.67
2023-04-18T12:53:46.424Z,19.80
2023-04-18T12:56:16.657Z,19.50
2023-04-18T12:58:45.947Z,18.55
2023-04-18T13:01:16.609Z,19.38
2023-04-18T13:03:48.714Z,18.42
2023-04-18T13:06:22.317Z,21.75
2023-04-18T13:08:51.062Z,19.23
2023-04-18T13:11:22.757Z,18.63
2023-04-18T13:13:51.413Z,20.58
2023-04-18T13:16:20.242Z,21.23
2023-04-18T13:18:48.888Z,20.90
2023-04-18T13:21:17.593Z,19.08
2023-04-18T13:23:46.293Z,17.08
2023-04-18T13:26:15.216Z,18.23
2023-04-18T13:28:45.183Z,16.45
2023-04-18T13:31:16.344Z,17.27
2023-04-18T13:33:45.355Z,16.40
2023-04-18T13:36:14.416Z,15.80
2023-04-18T13:38:43.695Z,14.70
2023-04-18T13:41:13.551Z,20.80
2023-04-18T13:46:13.239Z,15.90
2023-04-18T13:48:41.656Z,20.55
2023-04-18T13:51:11.024Z,18.17
2023-04-18T13:53:39.499Z,16.98
2023-04-18T13:56:08.858Z,17.80
2023-04-18T13:58:37.593Z,16.38
2023-04-18T14:01:06.543Z,19.55
2023-04-18T14:03:38.908Z,13.45
2023-04-18T14:06:09.171Z,18.20
2023-04-18T14:08:37.466Z,16.90
2023-04-18T14:11:06.802Z,16.77
2023-04-18T14:13:35.764Z,15.38
2023-04-18T14:16:04.873Z,19.92
2023-04-18T14:18:33.706Z,15.55
2023-04-18T14:21:04.264Z,17.45
2023-04-18T14:23:32.896Z,15.00
2023-04-18T14:26:03.221Z,16.45
2023-04-18T14:28:31.795Z,13.95
2023-04-18T14:31:02.284Z,15.73
2023-04-18T14:33:31.078Z,16.35
2023-04-18T14:35:59.962Z,14.20
2023-04-18T14:38:29.854Z,16.30
2023-04-18T14:40:58.957Z,18.20
2023-04-18T14:43:28.388Z,14.77
2023-04-18T14:45:59.014Z,15.35
2023-04-18T14:48:28.442Z,13.05
2023-04-18T14:51:02.644Z,13.48
2023-04-18T14:53:32.915Z,14.75
2023-04-18T14:56:01.949Z,12.63
2023-04-18T14:58:30.318Z,13.90
2023-04-18T15:00:59.199Z,18.40
2023-04-18T15:03:28.036Z,15.68
2023-04-18T15:05:57.962Z,14.38
2023-04-18T15:08:26.979Z,13.95
2023-04-18T15:10:57.437Z,14.45
2023-04-18T15:13:25.886Z,15.52
2023-04-18T15:15:55.803Z,14.03
2023-04-18T15:18:24.691Z,12.35
2023-04-18T15:20:53.913Z,11.98
2023-04-18T15:23:22.552Z,13.73
2023-04-18T15:25:51.551Z,12.83
2023-04-18T15:28:21.853Z,9.93
2023-04-18T15:30:50.672Z,15.20
2023-04-18T15:33:20.604Z,11.05
2023-04-18T15:35:49.773Z,12.65
2023-04-18T15:38:19.130Z,11.25
2023-04-18T15:40:48.062Z,12.68
2023-04-18T15:43:17.362Z,10.75
2023-04-18T15:45:48.465Z,12.65
2023-04-18T15:48:17.205Z,10.55
2023-04-18T15:50:52.190Z,13.32
2023-04-18T15:53:20.903Z,12.95
2023-04-18T15:55:51.000Z,12.48
2023-04-18T15:58:20.707Z,12.77
2023-04-18T16:00:52.073Z,12.70
2023-04-18T16:03:20.646Z,9.55
2023-04-18T16:05:49.743Z,9.25
2023-04-18T16:08:18.383Z,14.60
2023-04-18T16:10:47.159Z,8.90
2023-04-18T16:13:16.215Z,8.68
2023-04-18T16:15:45.009Z,9.75
2023-04-18T16:18:15.341Z,9.85
2023-04-18T16:20:44.110Z,11.40
2023-04-18T16:23:12.594Z,9.10
2023-04-18T16:25:41.780Z,9.80
2023-04-18T16:28:10.622Z,9.13
2023-04-18T16:30:39.569Z,10.55
2023-04-18T16:33:08.450Z,11.85
2023-04-18T16:35:40.263Z,10.32
2023-04-18T16:38:08.961Z,9.95
2023-04-18T16:40:38.257Z,8.27
2023-04-18T16:43:07.624Z,11.77
2023-04-18T16:45:37.559Z,12.18
2023-04-18T16:48:07.016Z,10.52
2023-04-18T16:53:05.898Z,11.30
2023-04-18T16:55:34.659Z,11.30
2023-04-18T16:58:03.298Z,9.00
2023-04-18T17:00:32.391Z,11.13
2023-04-18T17:03:01.801Z,11.82
2023-04-18T17:05:33.391Z,11.82
2023-04-18T17:08:03.629Z,10.55
2023-04-18T17:10:34.726Z,11.70
2023-04-18T17:13:04.252Z,14.98
2023-04-18T17:18:02.704Z,11.93
2023-04-18T17:20:31.704Z,10.15
2023-04-18T17:23:00.060Z,11.50
2023-04-18T17:25:29.013Z,12.25
2023-04-18T17:28:02.220Z,13.00
2023-04-18T17:30:31.547Z,12.35
2023-04-18T17:33:00.072Z,13.05
2023-04-18T17:35:28.996Z,9.37
2023-04-18T17:37:57.735Z,15.35
2023-04-18T17:40:26.801Z,11.55
2023-04-18T17:42:55.471Z,12.23
2023-04-18T17:45:26.145Z,11.40
2023-04-18T17:47:54.872Z,12.35
2023-04-18T17:50:23.983Z,11.43
2023-04-18T17:52:53.520Z,11.05
2023-04-18T17:57:50.608Z,11.07
2023-04-18T18:00:20.056Z,11.60
2023-04-18T18:02:50.331Z,9.93
2023-04-18T18:05:19.194Z,9.93
2023-04-18T18:07:47.659Z,10.95
2023-04-18T18:10:20.150Z,11.45
2023-04-18T18:12:49.023Z,12.20
2023-04-18T18:15:17.889Z,12.45
2023-04-18T18:17:46.417Z,10.93
2023-04-18T18:20:17.175Z,10.90
2023-04-18T18:22:46.422Z,10.55
2023-04-18T18:25:15.460Z,13.80
2023-04-18T18:27:44.293Z,10.07
2023-04-18T18:30:15.102Z,12.52
2023-04-18T18:32:43.755Z,10.13
2023-04-18T18:35:13.458Z,12.85
2023-04-18T18:37:43.630Z,11.63
2023-04-18T18:40:12.985Z,12.50
2023-04-18T18:42:42.650Z,9.75
2023-04-18T18:45:12.106Z,11.55
2023-04-18T18:47:40.631Z,10.03
2023-04-18T18:50:10.050Z,9.73
2023-04-18T18:52:40.815Z,20.80
2023-04-18T18:55:12.643Z,9.90
2023-04-18T18:57:41.360Z,13.85
2023-04-18T19:00:12.190Z,16.65
2023-04-18T19:02:41.551Z,9.38
2023-04-18T19:07:42.482Z,8.80
2023-04-18T19:10:13.056Z,12.50
2023-04-18T19:12:41.610Z,11.50
2023-04-18T19:15:11.174Z,10.33
2023-04-18T19:17:39.692Z,12.20
2023-04-18T19:20:09.950Z,10.82
2023-04-18T19:27:38.702Z,8.55
2023-04-18T19:30:08.860Z,9.30
2023-04-18T19:35:06.973Z,10.52
2023-04-18T19:37:36.225Z,9.18
2023-04-18T19:40:06.882Z,15.88
2023-04-18T19:42:35.274Z,8.82
2023-04-18T19:45:06.474Z,11.00
2023-04-18T19:47:35.841Z,10.23
2023-04-18T19:50:04.774Z,10.18
2023-04-18T19:52:33.145Z,12.38
2023-04-18T19:55:01.851Z,11.27
2023-04-18T19:57:30.456Z,10.35
2023-04-18T19:59:59.194Z,7.63
2023-04-18T20:02:29.255Z,9.80
2023-04-18T20:04:58.325Z,9.57
2023-04-18T20:07:27.047Z,9.55
2023-04-18T20:09:55.913Z,8.73
2023-04-18T20:12:25.079Z,11.65
2023-04-18T20:14:56.186Z,13.85
2023-04-18T20:17:24.874Z,10.10
2023-04-18T20:19:57.171Z,9.60
2023-04-18T20:22:26.829Z,10.38
2023-04-18T20:24:57.321Z,10.45
2023-04-18T20:27:26.057Z,10.63
2023-04-18T20:29:57.136Z,8.90
2023-04-18T20:32:26.791Z,10.40
2023-04-18T20:37:28.003Z,7.80
2023-04-18T20:39:58.863Z,7.60
2023-04-18T20:42:28.432Z,9.98
2023-04-18T20:47:28.370Z,8.55
2023-04-18T20:52:26.816Z,8.93
2023-04-18T20:54:56.075Z,9.97
2023-04-18T20:57:24.438Z,8.27
2023-04-18T20:59:54.458Z,7.85
2023-04-18T21:02:23.569Z,9.30
2023-04-18T21:04:52.803Z,8.55
2023-04-18T21:07:22.826Z,7.05
2023-04-18T21:09:51.904Z,7.70
2023-04-18T21:12:20.276Z,7.68
2023-04-18T21:14:50.046Z,9.02
2023-04-18T21:17:19.099Z,7.93
2023-04-18T21:19:48.226Z,7.88
2023-04-18T21:22:17.508Z,8.57
2023-04-18T21:24:48.286Z,8.90
2023-04-18T21:27:17.031Z,10.68
2023-04-18T21:29:45.959Z,9.05
2023-04-18T21:32:14.290Z,8.18
2023-04-18T21:34:43.243Z,8.55
2023-04-18T21:37:11.976Z,10.43
2023-04-18T21:39:42.580Z,6.57
2023-04-18T21:42:12.856Z,9.68
2023-04-18T21:44:41.813Z,8.02
2023-04-18T21:47:10.321Z,7.55
2023-04-18T21:49:39.009Z,8.27
2023-04-18T21:52:08.409Z,8.68
2023-04-18T21:54:37.072Z,8.75
2023-04-18T21:57:06.331Z,9.15
2023-04-18T21:59:36.204Z,8.80
2023-04-18T22:02:06.194Z,9.38
2023-04-18T22:04:38.219Z,8.45
2023-04-18T22:07:06.893Z,10.07
2023-04-18T22:09:36.416Z,10.65
2023-04-18T22:12:05.689Z,6.80
2023-04-18T22:14:35.290Z,8.43
2023-04-18T22:17:05.540Z,13.82
2023-04-18T22:19:35.866Z,10.00
2023-04-18T22:22:04.937Z,10.63
2023-04-18T22:24:34.188Z,8.02
2023-04-18T22:27:03.087Z,8.13
2023-04-18T22:29:32.138Z,8.75
2023-04-18T22:32:01.000Z,8.05
2023-04-18T22:34:31.449Z,9.80
2023-04-18T22:36:59.944Z,7.53
2023-04-18T22:39:28.766Z,8.30
2023-04-18T22:41:57.641Z,9.68
2023-04-18T22:44:27.402Z,11.25
2023-04-18T22:46:56.200Z,8.00
2023-04-18T22:49:25.192Z,9.55
2023-04-18T22:51:55.633Z,10.55
2023-04-18T22:54:24.521Z,10.48
2023-04-18T22:56:53.767Z,11.73
2023-04-18T22:59:22.914Z,8.02
2023-04-18T23:01:51.909Z,9.60
2023-04-18T23:04:21.139Z,9.27
2023-04-18T23:06:50.079Z,8.43
2023-04-18T23:09:20.991Z,7.78
2023-04-18T23:11:49.771Z,8.77
2023-04-18T23:14:19.421Z,8.48
2023-04-18T23:16:48.027Z,8.00
2023-04-18T23:19:17.260Z,7.47
2023-04-18T23:21:47.077Z,10.40
2023-04-18T23:24:19.575Z,7.30
2023-04-18T23:26:48.517Z,9.82
2023-04-18T23:29:17.938Z,8.45
2023-04-18T23:31:46.915Z,10.73
2023-04-18T23:34:16.420Z,9.43
2023-04-18T23:36:45.261Z,9.38
2023-04-18T23:39:14.493Z,9.45
2023-04-18T23:41:44.670Z,10.65
2023-04-18T23:44:14.312Z,8.13
2023-04-18T23:46:43.094Z,11.15
2023-04-18T23:49:12.362Z,11.10
2023-04-18T23:51:41.212Z,8.77
2023-04-18T23:54:10.553Z,11.32
2023-04-18T23:56:39.412Z,13.03
2023-04-18T23:59:10.208Z,9.25
